createdAt,value
2022-12-12T00:01:47.794Z,15.10
2022-12-12T00:04:14.945Z,15.38
2022-12-12T00:06:42.233Z,18.10
2022-12-12T00:09:09.600Z,19.88
2022-12-12T00:11:37.216Z,17.00
2022-12-12T00:14:04.853Z,16.23
2022-12-12T00:16:32.580Z,18.02
2022-12-12T00:18:59.725Z,18.33
2022-12-12T00:21:29.203Z,17.77
2022-12-12T00:23:56.889Z,18.08
2022-12-12T00:26:27.308Z,17.05
2022-12-12T00:28:55.203Z,18.13
2022-12-12T00:31:22.631Z,14.35
2022-12-12T00:33:50.322Z,17.45
2022-12-12T00:36:20.319Z,19.13
2022-12-12T00:38:47.938Z,20.17
2022-12-12T00:41:16.360Z,17.92
2022-12-12T00:43:43.725Z,18.27
2022-12-12T00:46:23.267Z,21.55
2022-12-12T00:48:53.286Z,17.85
2022-12-12T00:51:22.241Z,20.23
2022-12-12T00:53:50.326Z,18.48
2022-12-12T00:56:19.818Z,19.63
2022-12-12T00:58:47.091Z,15.07
2022-12-12T01:01:21.168Z,17.13
2022-12-12T01:03:48.643Z,15.85
2022-12-12T01:06:16.162Z,17.13
2022-12-12T01:08:43.860Z,16.55
2022-12-12T01:11:14.018Z,13.73
2022-12-12T01:13:42.447Z,15.73
2022-12-12T01:16:10.406Z,17.40
2022-12-12T01:18:38.332Z,16.52
2022-12-12T01:21:10.299Z,15.23
2022-12-12T01:23:37.984Z,18.13
2022-12-12T01:26:09.135Z,13.30
2022-12-12T01:28:36.321Z,16.83
2022-12-12T01:31:04.025Z,17.20
2022-12-12T01:33:31.236Z,14.30
2022-12-12T01:35:58.592Z,14.00
2022-12-12T01:38:25.669Z,16.00
2022-12-12T01:40:53.847Z,17.02
2022-12-12T01:43:22.628Z,15.10
2022-12-12T01:45:59.410Z,18.30
2022-12-12T01:48:43.844Z,16.45
2022-12-12T01:51:17.456Z,12.95
2022-12-12T01:53:45.806Z,13.80
2022-12-12T01:56:16.896Z,17.10
2022-12-12T01:58:46.635Z,17.15
2022-12-12T02:01:15.161Z,14.52
2022-12-12T02:03:42.817Z,12.85
2022-12-12T02:06:14.697Z,24.05
2022-12-12T02:08:43.186Z,16.38
2022-12-12T02:11:10.487Z,14.20
2022-12-12T02:13:37.724Z,17.80
2022-12-12T02:16:42.608Z,18.73
2022-12-12T02:19:21.622Z,17.25
2022-12-12T02:22:08.259Z,17.70
2022-12-12T02:25:06.747Z,15.23
2022-12-12T02:28:04.408Z,13.82
2022-12-12T02:30:48.609Z,24.05
2022-12-12T02:33:28.605Z,16.27
2022-12-12T02:36:18.787Z,11.95
2022-12-12T02:39:02.321Z,12.02
2022-12-12T02:41:42.520Z,13.55
2022-12-12T02:44:17.627Z,21.45
2022-12-12T02:47:06.397Z,12.75
2022-12-12T02:49:50.248Z,11.57
2022-12-12T02:52:17.975Z,12.90
2022-12-12T02:54:45.235Z,15.40
2022-12-12T02:57:21.747Z,13.18
2022-12-12T02:59:55.516Z,10.85
2022-12-12T03:03:18.987Z,10.48
2022-12-12T03:06:49.303Z,10.60
2022-12-12T03:09:38.352Z,8.70
2022-12-12T03:12:16.708Z,9.65
2022-12-12T03:15:05.880Z,10.40
2022-12-12T03:18:04.873Z,10.00
2022-12-12T03:20:49.772Z,11.13
2022-12-12T03:23:21.986Z,11.05
2022-12-12T03:26:12.064Z,8.82
2022-12-12T03:28:45.986Z,9.73
2022-12-12T03:31:14.708Z,10.25
2022-12-12T03:33:54.990Z,9.88
2022-12-12T03:36:27.811Z,8.70
2022-12-12T03:39:07.564Z,7.82
2022-12-12T03:41:40.745Z,7.18
2022-12-12T03:44:14.318Z,10.05
2022-12-12T03:46:48.890Z,11.05
2022-12-12T03:49:32.099Z,10.30
2022-12-12T03:52:25.744Z,9.20
2022-12-12T03:55:15.625Z,9.68
2022-12-12T03:57:52.205Z,12.68
2022-12-12T04:00:19.775Z,11.77
2022-12-12T04:02:56.569Z,10.85
2022-12-12T04:05:23.850Z,49.38
2022-12-12T04:08:15.273Z,12.85
2022-12-12T04:11:06.495Z,11.60
2022-12-12T04:13:59.700Z,31.73
2022-12-12T04:16:32.740Z,16.83
2022-12-12T04:19:12.369Z,9.95
2022-12-12T04:22:04.125Z,14.48
2022-12-12T04:25:02.496Z,16.65
2022-12-12T04:27:44.713Z,19.27
2022-12-12T04:30:14.383Z,23.23
2022-12-12T04:32:57.150Z,9.27
2022-12-12T04:35:38.810Z,11.15
2022-12-12T04:38:13.180Z,14.30
2022-12-12T04:40:45.208Z,12.17
2022-12-12T04:43:19.513Z,12.77
2022-12-12T04:45:55.144Z,10.48
2022-12-12T04:48:29.269Z,12.05
2022-12-12T04:50:59.314Z,9.40
2022-12-12T04:53:37.374Z,10.05
2022-12-12T04:56:11.076Z,8.93
2022-12-12T04:58:39.298Z,7.10
2022-12-12T05:01:21.906Z,11.25
2022-12-12T05:03:58.996Z,10.57
2022-12-12T05:06:36.935Z,9.88
2022-12-12T05:09:04.495Z,9.60
2022-12-12T05:11:33.156Z,8.00
2022-12-12T05:14:00.414Z,10.15
2022-12-12T05:16:36.016Z,9.55
2022-12-12T05:19:03.511Z,11.10
2022-12-12T05:21:30.468Z,12.05
2022-12-12T05:23:57.796Z,9.77
2022-12-12T05:26:27.438Z,9.75
2022-12-12T05:28:55.306Z,7.07
2022-12-12T05:31:22.873Z,8.10
2022-12-12T05:33:50.438Z,9.18
2022-12-12T05:36:17.845Z,8.63
2022-12-12T05:38:45.588Z,12.73
2022-12-12T05:41:12.636Z,44.05
2022-12-12T05:43:40.033Z,38.58
2022-12-12T05:46:07.421Z,33.42
2022-12-12T05:48:34.757Z,30.40
2022-12-12T05:51:03.260Z,27.45
2022-12-12T05:53:30.880Z,21.30
2022-12-12T05:55:58.189Z,21.75
2022-12-12T05:58:25.420Z,17.88
2022-12-12T06:00:52.532Z,14.88
2022-12-12T06:03:19.975Z,12.57
2022-12-12T06:05:47.328Z,7.43
2022-12-12T06:08:14.757Z,30.40
2022-12-12T06:10:42.162Z,17.30
2022-12-12T06:13:09.140Z,9.68
2022-12-12T06:15:40.247Z,10.23
2022-12-12T06:18:08.883Z,13.80
2022-12-12T06:20:36.398Z,10.85
2022-12-12T06:23:03.557Z,9.82
2022-12-12T06:25:31.609Z,10.93
2022-12-12T06:27:59.244Z,11.70
2022-12-12T06:30:26.900Z,11.30
2022-12-12T06:32:53.968Z,16.83
2022-12-12T06:35:21.295Z,9.23
2022-12-12T06:37:48.581Z,13.48
2022-12-12T06:40:16.424Z,13.95
2022-12-12T06:42:47.932Z,10.95
2022-12-12T06:45:17.090Z,13.85
2022-12-12T06:47:44.304Z,13.27
2022-12-12T06:50:12.716Z,11.25
2022-12-12T06:52:39.700Z,12.43
2022-12-12T06:55:07.454Z,15.18
2022-12-12T06:57:34.883Z,8.05
2022-12-12T07:00:03.164Z,15.48
2022-12-12T07:02:30.584Z,25.15
2022-12-12T07:04:58.471Z,10.95
2022-12-12T07:07:25.581Z,9.43
2022-12-12T07:09:52.933Z,62.42
2022-12-12T07:12:20.049Z,80.93
2022-12-12T07:14:47.306Z,59.50
2022-12-12T07:17:14.263Z,38.60
2022-12-12T07:19:41.544Z,67.47
2022-12-12T07:22:10.430Z,94.85
2022-12-12T07:24:38.437Z,109.25
2022-12-12T07:27:06.875Z,66.47
2022-12-12T07:29:34.238Z,143.82
2022-12-12T07:32:01.247Z,131.82
2022-12-12T07:34:31.454Z,185.02
2022-12-12T07:37:02.837Z,20.95
2022-12-12T07:39:34.623Z,16.45
2022-12-12T07:42:01.664Z,15.13
2022-12-12T07:44:29.156Z,23.85
2022-12-12T07:46:59.027Z,18.63
2022-12-12T07:49:28.366Z,18.85
2022-12-12T07:51:55.409Z,34.38
2022-12-12T07:54:22.837Z,29.58
2022-12-12T07:56:50.039Z,29.52
2022-12-12T07:59:17.530Z,29.98
2022-12-12T08:01:44.617Z,44.00
2022-12-12T08:04:13.398Z,31.70
2022-12-12T08:06:40.343Z,54.35
2022-12-12T08:09:07.680Z,31.40
2022-12-12T08:11:35.721Z,24.55
2022-12-12T08:14:11.154Z,33.22
2022-12-12T08:16:40.044Z,29.92
2022-12-12T08:19:07.864Z,14.63
2022-12-12T08:21:34.984Z,16.48
2022-12-12T08:24:03.000Z,28.58
2022-12-12T08:26:32.020Z,24.42
2022-12-12T08:28:59.562Z,47.63
2022-12-12T08:31:28.015Z,49.47
2022-12-12T08:33:55.949Z,52.15
2022-12-12T08:36:26.737Z,16.85
2022-12-12T08:38:54.012Z,18.60
2022-12-12T08:41:22.517Z,32.50
2022-12-12T08:43:50.109Z,31.70
2022-12-12T08:46:19.588Z,23.10
2022-12-12T08:48:48.240Z,21.10
2022-12-12T08:51:16.497Z,40.78
2022-12-12T08:53:45.799Z,39.38
2022-12-12T08:56:13.172Z,29.05
2022-12-12T08:58:40.750Z,30.83
2022-12-12T09:01:25.465Z,33.67
2022-12-12T09:03:55.123Z,32.78
2022-12-12T09:06:23.537Z,25.75
2022-12-12T09:08:50.960Z,26.85
2022-12-12T09:11:18.729Z,20.50
2022-12-12T09:13:46.198Z,27.83
2022-12-12T09:16:13.868Z,37.17
2022-12-12T09:18:48.110Z,18.95
2022-12-12T09:21:17.357Z,34.17
2022-12-12T09:23:44.881Z,21.73
2022-12-12T09:26:12.293Z,14.60
2022-12-12T09:28:40.154Z,18.67
2022-12-12T09:31:08.885Z,15.10
2022-12-12T09:33:36.573Z,22.02
2022-12-12T09:36:06.273Z,17.30
2022-12-12T09:38:33.870Z,19.73
2022-12-12T09:41:09.841Z,19.27
2022-12-12T09:43:44.586Z,19.10
2022-12-12T09:46:32.053Z,20.95
2022-12-12T09:49:16.138Z,15.15
2022-12-12T09:51:47.152Z,15.02
2022-12-12T09:54:23.233Z,13.60
2022-12-12T09:56:53.417Z,35.80
2022-12-12T09:59:37.719Z,59.05
2022-12-12T10:02:23.287Z,39.25
2022-12-12T10:04:58.688Z,28.00
2022-12-12T10:10:33.611Z,42.08
2022-12-12T10:13:03.078Z,29.85
2022-12-12T10:15:43.123Z,25.00
2022-12-12T10:18:52.375Z,27.70
2022-12-12T10:21:26.137Z,38.85
2022-12-12T10:24:50.809Z,31.92
2022-12-12T10:27:18.534Z,47.83
2022-12-12T10:30:34.852Z,31.23
2022-12-12T10:33:10.314Z,31.30
2022-12-12T10:35:50.731Z,22.08
2022-12-12T10:38:47.875Z,28.00
2022-12-12T10:41:51.332Z,47.92
2022-12-12T10:45:06.454Z,38.17
2022-12-12T10:47:35.145Z,21.35
2022-12-12T10:50:13.313Z,17.80
2022-12-12T10:52:41.281Z,15.00
2022-12-12T10:55:25.687Z,11.90
2022-12-12T10:58:04.525Z,19.38
2022-12-12T11:01:10.652Z,14.77
2022-12-12T11:03:51.136Z,24.25
2022-12-12T11:06:38.300Z,43.33
2022-12-12T11:09:24.187Z,62.55
2022-12-12T11:12:16.665Z,71.72
2022-12-12T11:14:48.504Z,36.67
2022-12-12T11:17:27.750Z,22.15
2022-12-12T11:19:57.974Z,26.63
2022-12-12T11:22:27.479Z,23.02
2022-12-12T11:24:55.110Z,27.48
2022-12-12T11:27:30.680Z,32.70
2022-12-12T11:33:21.942Z,25.60
2022-12-12T11:35:55.340Z,31.75
2022-12-12T11:38:28.186Z,42.55
2022-12-12T11:41:04.652Z,33.13
2022-12-12T11:43:49.517Z,36.28
2022-12-12T11:46:30.581Z,31.60
2022-12-12T11:49:01.152Z,31.27
2022-12-12T11:51:38.497Z,91.97
2022-12-12T11:54:23.097Z,154.75
2022-12-12T11:57:03.400Z,102.60
2022-12-12T11:59:55.312Z,35.28
2022-12-12T12:02:47.821Z,238.95
2022-12-12T12:05:52.409Z,42.35
2022-12-12T12:08:54.855Z,133.88
2022-12-12T12:11:37.375Z,54.90
2022-12-12T12:14:13.396Z,152.07
2022-12-12T12:17:18.595Z,147.52
2022-12-12T12:19:49.840Z,96.10
2022-12-12T12:22:48.880Z,37.42
2022-12-12T12:25:47.897Z,59.13
2022-12-12T12:28:33.705Z,53.55
2022-12-12T12:36:58.624Z,202.27
2022-12-12T12:40:01.102Z,60.05
2022-12-12T12:43:07.262Z,35.35
2022-12-12T12:45:40.960Z,38.22
2022-12-12T12:48:23.220Z,22.48
2022-12-12T12:51:01.577Z,25.60
2022-12-12T12:53:36.826Z,44.97
2022-12-12T12:56:38.564Z,57.78
2022-12-12T12:59:17.619Z,40.50
2022-12-12T13:01:49.030Z,86.25
2022-12-12T13:07:40.508Z,150.70
2022-12-12T13:10:27.210Z,67.47
2022-12-12T13:13:06.318Z,79.40
2022-12-12T13:15:40.351Z,81.28
2022-12-12T13:18:26.069Z,71.60
2022-12-12T13:21:03.963Z,93.97
2022-12-12T13:23:53.245Z,236.18
2022-12-12T13:26:45.576Z,83.32
2022-12-12T13:30:12.493Z,56.08
2022-12-12T13:33:11.093Z,54.95
2022-12-12T13:35:45.921Z,28.73
2022-12-12T13:38:26.465Z,18.27
2022-12-12T13:41:03.110Z,22.83
2022-12-12T13:43:30.632Z,22.70
2022-12-12T13:45:58.295Z,23.83
2022-12-12T13:48:28.476Z,23.23
2022-12-12T13:51:30.963Z,22.20
2022-12-12T13:54:12.265Z,19.88
2022-12-12T13:57:14.659Z,18.55
2022-12-12T13:59:53.823Z,79.60
2022-12-12T14:02:38.977Z,35.17
2022-12-12T14:05:28.236Z,53.55
2022-12-12T14:08:21.525Z,43.85
2022-12-12T14:10:48.569Z,24.55
2022-12-12T14:13:22.079Z,38.47
2022-12-12T14:15:58.151Z,19.35
2022-12-12T14:18:30.537Z,20.52
2022-12-12T14:21:12.584Z,21.75
2022-12-12T14:23:46.516Z,54.10
2022-12-12T14:26:28.596Z,215.80
2022-12-12T14:29:18.914Z,57.63
2022-12-12T14:32:04.519Z,56.33
2022-12-12T14:34:37.626Z,58.92
2022-12-12T14:37:37.407Z,73.90
2022-12-12T14:40:25.386Z,39.40
2022-12-12T14:43:23.215Z,47.00
2022-12-12T14:45:50.982Z,63.22
2022-12-12T14:48:28.765Z,48.10
2022-12-12T14:51:16.828Z,39.22
2022-12-12T14:53:50.733Z,38.92
2022-12-12T14:56:21.878Z,40.63
2022-12-12T14:59:04.966Z,56.15
2022-12-12T15:01:32.493Z,81.00
2022-12-12T15:04:02.863Z,91.82
2022-12-12T15:06:37.388Z,100.78
2022-12-12T15:09:31.673Z,60.67
2022-12-12T15:12:11.180Z,39.57
2022-12-12T15:14:40.254Z,62.60
2022-12-12T15:17:28.927Z,43.60
2022-12-12T15:20:00.586Z,64.05
2022-12-12T15:22:34.160Z,130.55
2022-12-12T15:25:04.288Z,163.30
2022-12-12T15:27:43.468Z,225.38
2022-12-12T15:30:31.094Z,211.73
2022-12-12T15:33:00.719Z,137.35
2022-12-12T15:35:28.648Z,143.50
2022-12-12T15:38:01.709Z,85.35
2022-12-12T15:40:36.490Z,116.30
2022-12-12T15:43:23.411Z,66.63
2022-12-12T15:45:56.094Z,70.55
2022-12-12T15:48:25.697Z,117.65
2022-12-12T15:51:06.108Z,109.43
2022-12-12T15:53:39.191Z,156.95
2022-12-12T15:56:22.877Z,72.75
2022-12-12T15:59:15.221Z,98.03
2022-12-12T16:01:43.096Z,49.35
2022-12-12T16:04:10.803Z,77.20
2022-12-12T16:06:42.049Z,74.90
2022-12-12T16:09:32.758Z,63.55
2022-12-12T16:12:00.275Z,25.10
2022-12-12T16:14:40.232Z,15.95
2022-12-12T16:17:14.317Z,22.50
2022-12-12T16:19:54.757Z,45.47
2022-12-12T16:22:28.836Z,41.60
2022-12-12T16:25:10.912Z,165.32
2022-12-12T16:27:38.481Z,104.30
2022-12-12T16:30:06.527Z,112.55
2022-12-12T16:32:34.192Z,48.33
2022-12-12T16:35:01.695Z,126.95
2022-12-12T16:37:29.212Z,89.03
2022-12-12T16:39:56.716Z,113.13
2022-12-12T16:42:24.176Z,169.82
2022-12-12T16:44:52.038Z,168.50
2022-12-12T16:47:25.711Z,169.35
2022-12-12T16:49:53.219Z,65.68
2022-12-12T16:52:21.420Z,80.18
2022-12-12T16:54:53.643Z,93.15
2022-12-12T16:57:22.043Z,171.68
2022-12-12T16:59:49.447Z,59.85
2022-12-12T17:02:24.194Z,99.93
2022-12-12T17:07:19.021Z,67.45
2022-12-12T17:09:46.537Z,109.43
2022-12-12T17:12:15.305Z,69.70
2022-12-12T17:14:42.686Z,66.70
2022-12-12T17:17:13.672Z,83.35
2022-12-12T17:19:41.376Z,57.75
2022-12-12T17:22:08.450Z,61.60
2022-12-12T17:24:35.873Z,139.95
2022-12-12T17:27:03.022Z,46.97
2022-12-12T17:29:33.336Z,43.30
2022-12-12T17:32:00.434Z,38.45
2022-12-12T17:34:27.821Z,33.20
2022-12-12T17:36:54.760Z,33.35
2022-12-12T17:39:23.011Z,28.85
2022-12-12T17:41:51.412Z,47.42
2022-12-12T17:44:19.133Z,56.42
2022-12-12T17:46:46.233Z,69.75
2022-12-12T17:49:13.673Z,45.28
2022-12-12T17:51:40.749Z,32.95
2022-12-12T17:54:08.142Z,26.80
2022-12-12T17:56:35.587Z,26.88
2022-12-12T17:59:09.715Z,23.88
2022-12-12T18:01:37.366Z,22.70
2022-12-12T18:04:05.238Z,25.38
2022-12-12T18:06:36.054Z,17.50
2022-12-12T18:09:03.943Z,34.42
2022-12-12T18:11:35.931Z,22.02
2022-12-12T18:14:06.703Z,24.50
2022-12-12T18:16:35.496Z,21.23
2022-12-12T18:19:02.976Z,30.92
2022-12-12T18:24:23.514Z,19.05
2022-12-12T18:26:55.438Z,18.27
2022-12-12T18:29:23.948Z,22.80
2022-12-12T18:31:54.393Z,19.77
2022-12-12T18:34:23.696Z,18.70
2022-12-12T18:36:50.935Z,16.08
2022-12-12T18:39:18.348Z,18.85
2022-12-12T18:41:45.384Z,19.00
2022-12-12T18:44:14.951Z,18.92
2022-12-12T18:46:43.692Z,17.35
2022-12-12T18:49:15.904Z,28.50
2022-12-12T18:51:47.425Z,20.77
2022-12-12T18:54:16.669Z,22.80
2022-12-12T18:56:45.920Z,25.15
2022-12-12T18:59:14.408Z,28.52
2022-12-12T19:01:41.607Z,25.23
2022-12-12T19:04:12.573Z,27.98
2022-12-12T19:06:42.891Z,30.63
2022-12-12T19:09:15.955Z,41.22
2022-12-12T19:11:43.593Z,42.53
2022-12-12T19:14:12.756Z,39.88
2022-12-12T19:16:40.412Z,36.10
2022-12-12T19:19:09.611Z,32.63
2022-12-12T19:21:38.455Z,39.03
2022-12-12T19:24:09.276Z,40.80
2022-12-12T19:26:38.206Z,25.10
2022-12-12T19:29:09.717Z,25.83
2022-12-12T19:31:37.623Z,24.65
2022-12-12T19:34:06.823Z,27.73
2022-12-12T19:36:35.770Z,29.30
2022-12-12T19:39:05.990Z,31.02
2022-12-12T19:41:33.205Z,35.42
2022-12-12T19:44:01.968Z,33.40
2022-12-12T19:46:34.297Z,28.80
2022-12-12T19:49:04.648Z,33.38
2022-12-12T19:51:35.935Z,51.33
2022-12-12T19:54:07.941Z,41.10
2022-12-12T19:56:37.493Z,27.90
2022-12-12T19:59:05.370Z,23.15
2022-12-12T20:01:36.324Z,23.30
2022-12-12T20:04:09.178Z,19.75
2022-12-12T20:06:42.155Z,22.13
2022-12-12T20:09:11.405Z,32.92
2022-12-12T20:11:40.033Z,17.70
2022-12-12T20:14:08.040Z,20.95
2022-12-12T20:16:35.198Z,25.27
2022-12-12T20:19:05.551Z,13.70
2022-12-12T20:24:24.125Z,15.90
2022-12-12T20:26:54.306Z,18.27
2022-12-12T20:29:22.377Z,20.25
2022-12-12T20:31:49.918Z,20.50
2022-12-12T20:34:21.770Z,22.85
2022-12-12T20:36:50.250Z,19.05
2022-12-12T20:39:22.168Z,21.42
2022-12-12T20:41:53.327Z,33.03
2022-12-12T20:44:23.332Z,14.18
2022-12-12T20:46:50.428Z,19.98
2022-12-12T20:49:19.833Z,23.33
2022-12-12T20:51:56.437Z,24.20
2022-12-12T20:54:25.513Z,24.58
2022-12-12T20:56:54.350Z,23.92
2022-12-12T20:59:22.629Z,21.88
2022-12-12T21:01:49.871Z,34.42
2022-12-12T21:04:17.443Z,40.80
2022-12-12T21:06:48.658Z,32.67
2022-12-12T21:09:23.182Z,73.65
2022-12-12T21:14:19.756Z,20.10
2022-12-12T21:16:46.773Z,19.70
2022-12-12T21:19:17.119Z,19.27
2022-12-12T21:21:44.496Z,14.40
2022-12-12T21:24:13.422Z,10.65
2022-12-12T21:26:40.525Z,16.42
2022-12-12T21:29:09.620Z,17.17
2022-12-12T21:31:41.219Z,37.22
2022-12-12T21:34:10.914Z,28.05
2022-12-12T21:36:37.946Z,40.63
2022-12-12T21:39:07.185Z,160.68
2022-12-12T21:41:35.161Z,202.13
2022-12-12T21:44:02.553Z,67.90
2022-12-12T21:46:31.200Z,53.70
2022-12-12T21:49:17.325Z,51.22
2022-12-12T21:51:45.112Z,60.20
2022-12-12T21:54:14.370Z,47.13
2022-12-12T21:56:41.879Z,50.67
2022-12-12T21:59:10.768Z,28.73
2022-12-12T22:01:38.222Z,32.03
2022-12-12T22:04:05.976Z,39.40
2022-12-12T22:06:35.663Z,220.18
2022-12-12T22:09:06.248Z,103.60
2022-12-12T22:11:47.470Z,67.28
2022-12-12T22:14:19.106Z,30.42
2022-12-12T22:16:46.286Z,48.58
2022-12-12T22:19:14.941Z,31.75
2022-12-12T22:21:43.819Z,35.22
2022-12-12T22:24:11.259Z,29.65
2022-12-12T22:26:40.981Z,30.52
2022-12-12T22:29:12.614Z,24.80
2022-12-12T22:31:41.321Z,21.90
2022-12-12T22:34:16.163Z,28.50
2022-12-12T22:36:44.758Z,41.35
2022-12-12T22:39:25.388Z,35.90
2022-12-12T22:41:54.862Z,27.73
2022-12-12T22:44:23.311Z,24.92
2022-12-12T22:46:52.845Z,29.00
2022-12-12T22:49:25.831Z,34.70
2022-12-12T22:51:55.182Z,27.13
2022-12-12T22:54:22.873Z,27.95
2022-12-12T22:56:50.165Z,24.35
2022-12-12T22:59:17.461Z,22.67
2022-12-12T23:01:44.460Z,25.52
2022-12-12T23:04:15.517Z,21.25
2022-12-12T23:06:43.757Z,17.70
2022-12-12T23:09:20.768Z,19.25
2022-12-12T23:11:49.456Z,27.23
2022-12-12T23:14:19.721Z,26.30
2022-12-12T23:16:47.352Z,24.50
2022-12-12T23:19:18.921Z,68.90
2022-12-12T23:21:46.438Z,49.10
2022-12-12T23:24:14.249Z,40.28
2022-12-12T23:26:42.178Z,35.15
2022-12-12T23:29:12.772Z,49.22
2022-12-12T23:31:40.345Z,29.02
2022-12-12T23:34:15.120Z,20.67
2022-12-12T23:36:44.014Z,19.75
2022-12-12T23:39:12.499Z,20.73
2022-12-12T23:41:40.187Z,31.90
2022-12-12T23:44:08.476Z,26.35
2022-12-12T23:46:36.427Z,28.45
2022-12-12T23:49:08.127Z,23.00
2022-12-12T23:51:42.087Z,26.08
2022-12-12T23:54:11.930Z,20.77
2022-12-12T23:56:39.883Z,25.30
2022-12-12T23:59:11.653Z,30.05
